Norbank — PGIS — position and weather

sailwx.info

Track history (hours):
 
Tides and Currents Weather Stations Pressure Air Temp Water Temp Dewpoint Dewpoint Depression Visibility Wind Speed Wind Dir Waves Ship Positions

Norbank

Operator: P & O Ferries

Last reported at 2017-May-26 01:30 UTC. Time now 2017-May-26 01:54 UTC.
Position N 53°32' W 003°59'.

Length 167 m; draft 5.6 m.

Type: Ship (hazmat cat A). MMSI: 246213000.

Date/timePositionNaut miles runAvg speedWind from/ knotsBaromVisibWave heightAir tempDewpointWater temp
2017-May-26 01:30N 53°32' W 003°59'75 7.8
2017-May-25 15:49N 53°20' W 006°04'5717.2
2017-May-25 12:31N 53°36' W 004°33'1019.0
2017-May-25 11:59N 53°37' W 004°16'918.7
2017-May-25 11:29N 53°34' W 004°01'918.2
2017-May-25 11:00N 53°34' W 003°46'917.6
2017-May-25 10:30N 53°34' W 003°32'917.1
2017-May-25 10:00N 53°32' W 003°17'715.0
2017-May-25 09:30N 53°30' W 003°05'4 7.4
2017-May-25 09:00N 53°27' W 003°01'0 0.8
2017-May-25 08:28N 53°27' W 003°01'0 0.0
2017-May-25 07:58N 53°27' W 003°01'0 0.0
2017-May-25 07:28N 53°27' W 003°01'0 0.0
2017-May-25 07:01N 53°27' W 003°01'0 0.0
2017-May-25 06:27N 53°27' W 003°01'0 0.0
2017-May-25 05:57N 53°27' W 003°01'0 0.0
2017-May-25 05:30N 53°27' W 003°01'0 0.9
2017-May-25 05:00N 53°27' W 003°01'0 0.2
2017-May-25 04:30N 53°27' W 003°01'3 5.3
2017-May-25 04:00N 53°29' W 003°04'4 7.6
2017-May-25 03:30N 53°32' W 003°08'510.0
2017-May-25 03:00N 53°31' W 003°16'612.4
2017-May-25 02:30N 53°31' W 003°27'918.0
2017-May-25 02:00N 53°31' W 003°42'919.0
2017-May-25 01:30N 53°32' W 003°58'917.2
2017-May-25 01:00N 53°34' W 004°12'816.8
2017-May-25 00:30N 53°35' W 004°26'1017.1
2017-May-24 23:55N 53°36' W 004°43'4418.8
2017-May-24 21:34N 53°23' W 005°54'119.3
2017-May-24 21:30N 53°23' W 005°56'815.8
2017-May-24 21:00N 53°21' W 006°09'3 4.0
2017-May-24 20:22N 53°21' W 006°13'0 0.0
2017-May-24 19:39N 53°21' W 006°13'0 0.0
2017-May-24 18:15N 53°21' W 006°13'0 0.0
2017-May-24 17:35N 53°21' W 006°13'0 0.0
2017-May-24 17:26N 53°21' W 006°13'0 0.0
2017-May-24 16:50N 53°21' W 006°13'0 0.1
2017-May-24 16:30N 53°21' W 006°13'3 6.7
2017-May-24 16:01N 53°21' W 006°07'714.7
2017-May-24 15:31N 53°23' W 005°56'917.2
2017-May-24 14:59N 53°24' W 005°41'6617.4
2017-May-24 11:11N 53°34' W 003°51'417.6
2017-May-24 10:55N 53°34' W 003°43'717.4
2017-May-24 10:30N 53°33' W 003°31'917.0
2017-May-24 10:00N 53°32' W 003°17'815.3
2017-May-24 09:30N 53°29' W 003°05'4 7.1
2017-May-24 09:00N 53°26' W 003°01'1 1.1
2017-May-24 08:30N 53°27' W 003°01'1 1.0
2017-May-24 07:59N 53°27' W 003°01'0 0.0
2017-May-24 07:28N 53°27' W 003°01'0 0.0
2017-May-24 06:58N 53°27' W 003°01'0 0.0
2017-May-24 06:28N 53°27' W 003°01'0 0.0
2017-May-24 05:58N 53°27' W 003°01'0 0.0
2017-May-24 05:30N 53°27' W 003°01'0 0.0
2017-May-24 05:00N 53°27' W 003°01'0 0.0
2017-May-24 04:30N 53°27' W 003°01'0 0.9
2017-May-24 04:00N 53°27' W 003°01'1 2.7
2017-May-24 03:30N 53°28' W 003°03'612.7
2017-May-24 03:00N 53°31' W 003°12'817.0
2017-May-24 02:31N 53°32' W 003°26'918.6
2017-May-24 02:00N 53°31' W 003°41'918.4
2017-May-24 01:30N 53°32' W 003°57'917.8
2017-May-24 01:00N 53°34' W 004°12'5916.8
2017-May-23 21:28N 53°23' W 005°50'918.9
2017-May-23 21:01N 53°20' W 006°04'510.8
2017-May-23 20:30N 53°21' W 006°13'0 0.4
2017-May-23 19:50N 53°21' W 006°13'0 0.0
2017-May-23 19:05N 53°21' W 006°13'0 0.0
2017-May-23 18:59N 53°21' W 006°13'0 0.0
2017-May-23 18:19N 53°21' W 006°13'0 0.0
2017-May-23 17:46N 53°21' W 006°13'0 0.0
2017-May-23 17:04N 53°21' W 006°13'0 0.0
2017-May-23 16:58N 53°21' W 006°13'0 0.0
2017-May-23 16:25N 53°21' W 006°13'2 5.1
2017-May-23 16:00N 53°21' W 006°10'714.3
2017-May-23 15:30N 53°22' W 005°58'816.2
2017-May-23 15:00N 53°25' W 005°45'4216.1
2017-May-23 12:23N 53°36' W 004°37'1417.2
2017-May-23 11:33N 53°36' W 004°13'118.2
2017-May-23 11:30N 53°36' W 004°11'1018.2
2017-May-23 10:56N 53°35' W 003°54'817.8
2017-May-23 10:30N 53°34' W 003°41'815.6
2017-May-23 10:01N 53°33' W 003°28'916.8
2017-May-23 09:30N 53°31' W 003°14'816.4
2017-May-23 09:01N 53°27' W 003°02'1 1.6
2017-May-23 08:30N 53°27' W 003°01'0 0.6
2017-May-23 07:55N 53°27' W 003°01'0 0.0
2017-May-23 07:22N 53°27' W 003°01'0 0.0
2017-May-23 06:58N 53°27' W 003°01'0 0.0
2017-May-23 06:28N 53°27' W 003°01'0 0.0
2017-May-23 06:00N 53°27' W 003°01'0 0.0
2017-May-23 05:30N 53°27' W 003°01'0 0.0
2017-May-23 04:58N 53°27' W 003°01'0 0.0
2017-May-23 04:30N 53°27' W 003°01'0 0.9
2017-May-23 04:00N 53°27' W 003°01'0 0.2
2017-May-23 03:30N 53°27' W 003°01'510.3
2017-May-23 03:00N 53°31' W 003°07'714.2
2017-May-23 02:30N 53°31' W 003°19'917.1
2017-May-23 02:00N 53°31' W 003°33'816.7
2017-May-23 01:30N 53°31' W 003°47'816.4
2017-May-23 01:00N 53°33' W 004°01'6416.9
2017-May-22 21:13N 53°24' W 005°47'419.8
2017-May-22 21:00N 53°23' W 005°54'816.9
2017-May-22 20:30N 53°21' W 006°08'3 6.3
2017-May-22 20:00N 53°21' W 006°13'0 0.0
2017-May-22 19:27N 53°21' W 006°13'0 0.0
2017-May-22 18:45N 53°21' W 006°13'0 0.0
2017-May-22 18:30N 53°21' W 006°13'0 0.0
2017-May-22 17:59N 53°21' W 006°13'0 0.0
2017-May-22 17:14N 53°21' W 006°13'0 0.0
2017-May-22 16:35N 53°21' W 006°13'0 0.0
2017-May-22 16:29N 53°21' W 006°13'0 0.0
2017-May-22 15:49N 53°21' W 006°13'0 0.0
2017-May-22 15:07N 53°21' W 006°13'0 0.0
2017-May-22 14:55N 53°21' W 006°13'0 0.0
2017-May-22 13:39N 53°21' W 006°13'0 0.0
2017-May-22 13:06N 53°21' W 006°13'0 0.0
2017-May-22 13:00N 53°21' W 006°13'0 0.0
2017-May-22 12:24N 53°21' W 006°13'0 0.0
2017-May-22 11:42N 53°21' W 006°13'0 0.0
2017-May-22 11:30N 53°21' W 006°13'0 0.0
2017-May-22 10:59N 53°21' W 006°13'0 0.0
2017-May-22 10:20N 53°21' W 006°13'0 0.0
2017-May-22 09:32N 53°21' W 006°13'0 0.0
2017-May-22 09:29N 53°21' W 006°13'0 0.0
2017-May-22 08:58N 53°21' W 006°13'0 0.0
2017-May-22 08:16N 53°21' W 006°13'0 0.0
2017-May-22 07:58N 53°21' W 006°13'0 0.0
2017-May-22 07:25N 53°21' W 006°13'0 0.0
2017-May-22 06:49N 53°21' W 006°13'0 0.0
2017-May-22 06:12N 53°21' W 006°13'0 0.0
2017-May-22 06:00N 53°21' W 006°13'0 0.0
2017-May-22 05:27N 53°21' W 006°13'0 0.0
2017-May-22 04:45N 53°21' W 006°13'0 0.0
2017-May-22 04:30N 53°21' W 006°13'1 1.8
2017-May-22 04:00N 53°21' W 006°12'714.2
2017-May-22 03:30N 53°22' W 005°60'816.7
2017-May-22 03:00N 53°25' W 005°47'7114.9
2017-May-21 22:13N 53°34' W 003°48'313.3
2017-May-21 22:00N 53°34' W 003°43'713.2
2017-May-21 21:30N 53°34' W 003°32'613.0
2017-May-21 21:00N 53°33' W 003°21'815.5
2017-May-21 20:30N 53°32' W 003°08'612.9
2017-May-21 20:00N 53°27' W 003°01'0 0.9
2017-May-21 19:29N 53°27' W 003°01'0 0.0
2017-May-21 18:59N 53°27' W 003°01'0 0.0
2017-May-21 18:26N 53°27' W 003°01'0 0.0
2017-May-21 17:55N 53°27' W 003°01'0 0.0
2017-May-21 17:28N 53°27' W 003°01'0 0.0
2017-May-21 16:55N 53°27' W 003°01'0 0.0
2017-May-21 16:28N 53°27' W 003°01'0 0.0
2017-May-21 16:01N 53°27' W 003°01'0 0.0
2017-May-21 15:30N 53°27' W 003°01'0 0.0
2017-May-21 15:00N 53°27' W 003°01'0 0.0
2017-May-21 14:30N 53°27' W 003°01'0 0.0
2017-May-21 13:26N 53°27' W 003°01'0 0.0
2017-May-21 12:59N 53°27' W 003°01'0 0.0
2017-May-21 12:29N 53°27' W 003°01'0 0.0
2017-May-21 11:58N 53°27' W 003°01'0 0.0
2017-May-21 11:28N 53°27' W 003°01'0 0.0
2017-May-21 10:55N 53°27' W 003°01'0 0.0
2017-May-21 10:30N 53°27' W 003°01'0 0.0
2017-May-21 10:00N 53°27' W 003°01'0 0.0
2017-May-21 09:30N 53°27' W 003°01'0 0.0
2017-May-21 09:00N 53°27' W 003°01'0 0.0
2017-May-21 08:30N 53°27' W 003°01'0 0.0
2017-May-21 07:50N 53°27' W 003°01'0 0.0
2017-May-21 07:23N 53°27' W 003°01'0 0.0
2017-May-21 06:53N 53°27' W 003°01'0 0.0
2017-May-21 06:29N 53°27' W 003°01'0 0.0
2017-May-21 05:58N 53°27' W 003°01'0 0.0
2017-May-21 05:28N 53°27' W 003°01'0 0.0
2017-May-21 04:58N 53°27' W 003°01'0 0.1
2017-May-21 04:30N 53°27' W 003°01'0 1.0
2017-May-21 04:00N 53°27' W 003°01'510.0
2017-May-21 03:30N 53°31' W 003°06'816.0
2017-May-21 03:00N 53°31' W 003°20'816.5
2017-May-21 02:30N 53°31' W 003°34'816.1
2017-May-21 02:00N 53°31' W 003°47'815.6
2017-May-21 01:30N 53°33' W 003°60'6316.0
2017-May-20 21:33N 53°24' W 005°45'117.3
2017-May-20 21:30N 53°24' W 005°46'816.9
2017-May-20 21:00N 53°21' W 005°60'713.8
2017-May-20 20:30N 53°21' W 006°11'1 1.9
2017-May-20 19:56N 53°21' W 006°13'0 0.0
2017-May-20 19:26N 53°21' W 006°13'0 0.0
2017-May-20 18:43N 53°21' W 006°13'0 0.0
2017-May-20 17:49N 53°21' W 006°13'0 0.0
2017-May-20 17:13N 53°21' W 006°13'0 0.0
2017-May-20 16:51N 53°21' W 006°13'0 0.0
2017-May-20 16:30N 53°21' W 006°13'2 4.5
2017-May-20 16:01N 53°21' W 006°09'714.5
2017-May-20 15:31N 53°22' W 005°58'816.2
2017-May-20 15:00N 53°25' W 005°44'6416.7
2017-May-20 11:09N 53°35' W 003°58'718.3
2017-May-20 10:47N 53°34' W 003°46'518.2
2017-May-20 10:30N 53°33' W 003°38'918.2
2017-May-20 10:00N 53°33' W 003°23'918.2
2017-May-20 09:30N 53°31' W 003°07'611.4
2017-May-20 09:00N 53°27' W 003°01'0 0.6
2017-May-20 08:30N 53°27' W 003°01'0 0.4
2017-May-20 07:58N 53°27' W 003°01'0 0.0
2017-May-20 07:30N 53°27' W 003°01'0 0.0
2017-May-20 07:00N 53°27' W 003°01'0 0.0
2017-May-20 06:30N 53°27' W 003°01'0 0.0
2017-May-20 06:00N 53°27' W 003°01'0 0.0
2017-May-20 05:30N 53°27' W 003°01'0 0.0
2017-May-20 05:00N 53°27' W 003°01'0 0.4
2017-May-20 04:30N 53°27' W 003°01'1 1.2
2017-May-20 04:00N 53°27' W 003°01'0 0.6
2017-May-20 03:30N 53°26' W 003°01'5 9.4
2017-May-20 03:00N 53°30' W 003°06'917.6
2017-May-20 02:30N 53°31' W 003°21'816.5
2017-May-20 02:00N 53°31' W 003°34'816.0
2017-May-20 01:30N 53°32' W 003°48'816.1
2017-May-20 01:00N 53°33' W 004°01'1016.2
2017-May-20 00:22N 53°35' W 004°18'5818.5
2017-May-19 21:12N 53°23' W 005°54'419.2
2017-May-19 21:00N 53°21' W 006°00'713.4
2017-May-19 20:30N 53°21' W 006°11'1 1.6
2017-May-19 19:44N 53°21' W 006°13'0 0.0
2017-May-19 18:16N 53°21' W 006°13'0 0.0
2017-May-19 17:34N 53°21' W 006°13'0 0.0
2017-May-19 17:28N 53°21' W 006°13'0 0.0
2017-May-19 17:00N 53°21' W 006°13'0 0.0
2017-May-19 16:29N 53°21' W 006°13'2 3.7
2017-May-19 16:00N 53°21' W 006°10'815.1
2017-May-19 15:30N 53°22' W 005°58'816.3
2017-May-19 15:00N 53°25' W 005°45'2816.4
2017-May-19 13:19N 53°33' W 005°00'1816.4
2017-May-19 12:13N 53°37' W 004°30'716.7
2017-May-19 11:49N 53°36' W 004°19'517.2
2017-May-19 11:30N 53°35' W 004°10'1617.6
2017-May-19 10:34N 53°34' W 003°43'217.7
2017-May-19 10:27N 53°33' W 003°39'817.6
2017-May-19 10:00N 53°33' W 003°26'917.4
2017-May-19 09:30N 53°32' W 003°12'815.7
2017-May-19 09:00N 53°27' W 003°01'0 0.3
2017-May-19 08:30N 53°27' W 003°01'0 0.8
2017-May-19 07:56N 53°27' W 003°01'0 0.0
2017-May-19 07:26N 53°27' W 003°01'0 0.0
2017-May-19 06:52N 53°27' W 003°01'0 0.0
2017-May-19 06:28N 53°27' W 003°01'0 0.0
2017-May-19 05:58N 53°27' W 003°01'0 0.0
2017-May-19 05:25N 53°27' W 003°01'0 0.0
2017-May-19 04:55N 53°27' W 003°01'0 0.0
2017-May-19 04:30N 53°27' W 003°01'0 0.2
2017-May-19 04:00N 53°27' W 003°01'1 1.1
2017-May-19 03:30N 53°27' W 003°01'713.0
2017-May-19 03:00N 53°32' W 003°08'917.3
2017-May-19 02:30N 53°32' W 003°23'917.6
2017-May-19 02:00N 53°31' W 003°38'816.5
2017-May-19 01:30N 53°33' W 003°52'7416.6
2017-May-18 21:04N 53°22' W 005°54'117.0
2017-May-18 21:00N 53°22' W 005°56'815.5
2017-May-18 20:30N 53°21' W 006°08'3 2.5
2017-May-18 19:22N 53°21' W 006°13'0 0.0
2017-May-18 18:28N 53°21' W 006°13'0 0.0
2017-May-18 17:57N 53°21' W 006°13'0 0.0
2017-May-18 17:15N 53°21' W 006°13'0 0.0
2017-May-18 16:43N 53°21' W 006°13'0 0.4
2017-May-18 16:30N 53°21' W 006°13'611.1
2017-May-18 16:00N 53°20' W 006°04'917.2
2017-May-18 15:31N 53°24' W 005°50'7516.0
2017-May-18 10:49N 53°34' W 003°46'617.2
2017-May-18 10:30N 53°33' W 003°37'917.3
2017-May-18 10:00N 53°32' W 003°22'816.9
2017-May-18 09:30N 53°32' W 003°08'612.5
2017-May-18 09:00N 53°27' W 003°01'0 0.0
2017-May-18 08:30N 53°27' W 003°01'0 0.8
2017-May-18 07:55N 53°27' W 003°01'0 0.0
2017-May-18 07:28N 53°27' W 003°01'0 0.0
2017-May-18 07:00N 53°27' W 003°01'0 0.0
2017-May-18 06:30N 53°27' W 003°01'0 0.0
2017-May-18 06:00N 53°27' W 003°01'0 0.0
2017-May-18 05:30N 53°27' W 003°01'0 0.0
2017-May-18 04:57N 53°27' W 003°01'0 0.0
2017-May-18 04:26N 53°27' W 003°01'0 0.1
2017-May-18 03:59N 53°27' W 003°01'0 1.0
2017-May-18 03:30N 53°27' W 003°01'611.4
2017-May-18 03:00N 53°31' W 003°07'919.1
2017-May-18 02:30N 53°31' W 003°23'918.1
2017-May-18 02:00N 53°31' W 003°38'918.0
2017-May-18 01:30N 53°33' W 003°54'917.6
2017-May-18 01:00N 53°35' W 004°08'6217.3
2017-May-17 21:25N 53°23' W 005°50'717.3
2017-May-17 21:00N 53°21' W 006°01'713.4
2017-May-17 20:30N 53°21' W 006°12'1 0.9
2017-May-17 19:58N 53°21' W 006°13'0 0.0
2017-May-17 19:28N 53°21' W 006°13'0 0.0
2017-May-17 18:46N 53°21' W 006°13'0 0.0
2017-May-17 18:00N 53°21' W 006°13'0 0.0
2017-May-17 17:18N 53°21' W 006°13'0 0.0
2017-May-17 16:42N 53°21' W 006°13'0 0.0
2017-May-17 16:30N 53°21' W 006°13'2 4.4
2017-May-17 16:01N 53°21' W 006°10'714.0
2017-May-17 15:30N 53°22' W 005°58'714.9
2017-May-17 15:00N 53°25' W 005°46'815.1
2017-May-17 14:30N 53°27' W 005°34'6516.7
2017-May-17 10:37N 53°34' W 003°46'219.0
2017-May-17 10:30N 53°34' W 003°42'919.0
2017-May-17 10:00N 53°33' W 003°26'917.8
2017-May-17 09:30N 53°32' W 003°11'815.1
2017-May-17 09:00N 53°27' W 003°01'0 0.4
2017-May-17 08:30N 53°27' W 003°01'0 0.9
2017-May-17 08:00N 53°27' W 003°01'0 0.0
2017-May-17 07:25N 53°27' W 003°01'0 0.0
2017-May-17 06:55N 53°27' W 003°01'0 0.0
2017-May-17 06:27N 53°27' W 003°01'0 0.0
2017-May-17 05:54N 53°27' W 003°01'0 0.0
2017-May-17 05:30N 53°27' W 003°01'0 0.0
2017-May-17 04:57N 53°27' W 003°01'0 0.0
2017-May-17 04:29N 53°27' W 003°01'0 0.5
2017-May-17 04:00N 53°27' W 003°01'0 0.7
2017-May-17 03:30N 53°27' W 003°01'713.8
2017-May-17 03:00N 53°32' W 003°09'816.9
2017-May-17 02:30N 53°31' W 003°24'917.4
2017-May-17 02:00N 53°31' W 003°38'816.6
2017-May-17 01:30N 53°32' W 003°52'816.6
2017-May-17 01:00N 53°33' W 004°06'816.3
2017-May-17 00:30N 53°35' W 004°20'5516.7
2017-May-16 21:13N 53°23' W 005°50'417.0
2017-May-16 20:59N 53°22' W 005°56'815.7
2017-May-16 20:31N 53°21' W 006°08'3 5.5
2017-May-16 19:59N 53°21' W 006°13'0 0.0
2017-May-16 19:13N 53°21' W 006°13'0 0.0
2017-May-16 18:55N 53°21' W 006°13'0 0.0
2017-May-16 18:25N 53°21' W 006°13'0 0.0
2017-May-16 17:55N 53°21' W 006°13'0 0.0
2017-May-16 17:12N 53°21' W 006°13'0 0.0
2017-May-16 16:33N 53°21' W 006°13'0 0.0
2017-May-16 16:30N 53°21' W 006°13'1 1.8
2017-May-16 16:00N 53°21' W 006°12'815.7
2017-May-16 15:30N 53°22' W 005°59'1019.4
2017-May-16 15:00N 53°25' W 005°43'7317.6
2017-May-16 10:50N 53°34' W 003°41'618.5
2017-May-16 10:30N 53°33' W 003°31'918.4
2017-May-16 10:00N 53°31' W 003°15'713.9
2017-May-16 09:30N 53°29' W 003°05'3 5.5
2017-May-16 09:00N 53°27' W 003°01'0 0.9
2017-May-16 08:30N 53°27' W 003°01'0 0.0
2017-May-16 07:59N 53°27' W 003°01'0 0.0
2017-May-16 07:28N 53°27' W 003°01'0 0.0
2017-May-16 06:58N 53°27' W 003°01'0 0.0
2017-May-16 06:28N 53°27' W 003°01'0 0.0
2017-May-16 05:58N 53°27' W 003°01'0 0.0
2017-May-16 05:27N 53°27' W 003°01'0 0.0
2017-May-16 04:57N 53°27' W 003°01'0 0.0
2017-May-16 04:27N 53°27' W 003°01'0 0.2
2017-May-16 04:00N 53°27' W 003°01'0 1.0
2017-May-16 03:30N 53°27' W 003°01'5 9.9
2017-May-16 03:00N 53°31' W 003°07'816.5
2017-May-16 02:30N 53°31' W 003°21'816.4
2017-May-16 02:00N 53°31' W 003°34'816.3
2017-May-16 01:30N 53°32' W 003°48'  
Track history (hours):
 
Tides and Currents Weather Stations Pressure Air Temp Water Temp Dewpoint Dewpoint Depression Visibility Wind Speed Wind Dir Waves Ship Positions

Norbank

Operator: P & O Ferries

Last reported at 2017-May-26 01:30 UTC. Time now 2017-May-26 01:54 UTC.
Position N 53°32' W 003°59'.

Length 167 m; draft 5.6 m.

Type: Ship (hazmat cat A). MMSI: 246213000.

Date/timePositionNaut miles runAvg speedWind from/ knotsBaromVisibWave heightAir tempDewpointWater temp
2017-May-26 01:30N 53°32' W 003°59'75 7.8
2017-May-25 15:49N 53°20' W 006°04'5717.2
2017-May-25 12:31N 53°36' W 004°33'1019.0
2017-May-25 11:59N 53°37' W 004°16'918.7
2017-May-25 11:29N 53°34' W 004°01'918.2
2017-May-25 11:00N 53°34' W 003°46'917.6
2017-May-25 10:30N 53°34' W 003°32'917.1
2017-May-25 10:00N 53°32' W 003°17'715.0
2017-May-25 09:30N 53°30' W 003°05'4 7.4
2017-May-25 09:00N 53°27' W 003°01'0 0.8
2017-May-25 08:28N 53°27' W 003°01'0 0.0
2017-May-25 07:58N 53°27' W 003°01'0 0.0
2017-May-25 07:28N 53°27' W 003°01'0 0.0
2017-May-25 07:01N 53°27' W 003°01'0 0.0
2017-May-25 06:27N 53°27' W 003°01'0 0.0
2017-May-25 05:57N 53°27' W 003°01'0 0.0
2017-May-25 05:30N 53°27' W 003°01'0 0.9
2017-May-25 05:00N 53°27' W 003°01'0 0.2
2017-May-25 04:30N 53°27' W 003°01'3 5.3
2017-May-25 04:00N 53°29' W 003°04'4 7.6
2017-May-25 03:30N 53°32' W 003°08'510.0
2017-May-25 03:00N 53°31' W 003°16'612.4
2017-May-25 02:30N 53°31' W 003°27'918.0
2017-May-25 02:00N 53°31' W 003°42'919.0
2017-May-25 01:30N 53°32' W 003°58'917.2
2017-May-25 01:00N 53°34' W 004°12'816.8
2017-May-25 00:30N 53°35' W 004°26'1017.1
2017-May-24 23:55N 53°36' W 004°43'4418.8
2017-May-24 21:34N 53°23' W 005°54'119.3
2017-May-24 21:30N 53°23' W 005°56'815.8
2017-May-24 21:00N 53°21' W 006°09'3 4.0
2017-May-24 20:22N 53°21' W 006°13'0 0.0
2017-May-24 19:39N 53°21' W 006°13'0 0.0
2017-May-24 18:15N 53°21' W 006°13'0 0.0
2017-May-24 17:35N 53°21' W 006°13'0 0.0
2017-May-24 17:26N 53°21' W 006°13'0 0.0
2017-May-24 16:50N 53°21' W 006°13'0 0.1
2017-May-24 16:30N 53°21' W 006°13'3 6.7
2017-May-24 16:01N 53°21' W 006°07'714.7
2017-May-24 15:31N 53°23' W 005°56'917.2
2017-May-24 14:59N 53°24' W 005°41'6617.4
2017-May-24 11:11N 53°34' W 003°51'417.6
2017-May-24 10:55N 53°34' W 003°43'717.4
2017-May-24 10:30N 53°33' W 003°31'917.0
2017-May-24 10:00N 53°32' W 003°17'815.3
2017-May-24 09:30N 53°29' W 003°05'4 7.1
2017-May-24 09:00N 53°26' W 003°01'1 1.1
2017-May-24 08:30N 53°27' W 003°01'1 1.0
2017-May-24 07:59N 53°27' W 003°01'0 0.0
2017-May-24 07:28N 53°27' W 003°01'0 0.0
2017-May-24 06:58N 53°27' W 003°01'0 0.0
2017-May-24 06:28N 53°27' W 003°01'0 0.0
2017-May-24 05:58N 53°27' W 003°01'0 0.0
2017-May-24 05:30N 53°27' W 003°01'0 0.0
2017-May-24 05:00N 53°27' W 003°01'0 0.0
2017-May-24 04:30N 53°27' W 003°01'0 0.9
2017-May-24 04:00N 53°27' W 003°01'1 2.7
2017-May-24 03:30N 53°28' W 003°03'612.7
2017-May-24 03:00N 53°31' W 003°12'817.0
2017-May-24 02:31N 53°32' W 003°26'918.6
2017-May-24 02:00N 53°31' W 003°41'918.4
2017-May-24 01:30N 53°32' W 003°57'917.8
2017-May-24 01:00N 53°34' W 004°12'5916.8
2017-May-23 21:28N 53°23' W 005°50'918.9
2017-May-23 21:01N 53°20' W 006°04'510.8
2017-May-23 20:30N 53°21' W 006°13'0 0.4
2017-May-23 19:50N 53°21' W 006°13'0 0.0
2017-May-23 19:05N 53°21' W 006°13'0 0.0
2017-May-23 18:59N 53°21' W 006°13'0 0.0
2017-May-23 18:19N 53°21' W 006°13'0 0.0
2017-May-23 17:46N 53°21' W 006°13'0 0.0
2017-May-23 17:04N 53°21' W 006°13'0 0.0
2017-May-23 16:58N 53°21' W 006°13'0 0.0
2017-May-23 16:25N 53°21' W 006°13'2 5.1
2017-May-23 16:00N 53°21' W 006°10'714.3
2017-May-23 15:30N 53°22' W 005°58'816.2
2017-May-23 15:00N 53°25' W 005°45'4216.1
2017-May-23 12:23N 53°36' W 004°37'1417.2
2017-May-23 11:33N 53°36' W 004°13'118.2
2017-May-23 11:30N 53°36' W 004°11'1018.2
2017-May-23 10:56N 53°35' W 003°54'817.8
2017-May-23 10:30N 53°34' W 003°41'815.6
2017-May-23 10:01N 53°33' W 003°28'916.8
2017-May-23 09:30N 53°31' W 003°14'816.4
2017-May-23 09:01N 53°27' W 003°02'1 1.6
2017-May-23 08:30N 53°27' W 003°01'0 0.6
2017-May-23 07:55N 53°27' W 003°01'0 0.0
2017-May-23 07:22N 53°27' W 003°01'0 0.0
2017-May-23 06:58N 53°27' W 003°01'0 0.0
2017-May-23 06:28N 53°27' W 003°01'0 0.0
2017-May-23 06:00N 53°27' W 003°01'0 0.0
2017-May-23 05:30N 53°27' W 003°01'0 0.0
2017-May-23 04:58N 53°27' W 003°01'0 0.0
2017-May-23 04:30N 53°27' W 003°01'0 0.9
2017-May-23 04:00N 53°27' W 003°01'0 0.2
2017-May-23 03:30N 53°27' W 003°01'510.3
2017-May-23 03:00N 53°31' W 003°07'714.2
2017-May-23 02:30N 53°31' W 003°19'917.1
2017-May-23 02:00N 53°31' W 003°33'816.7
2017-May-23 01:30N 53°31' W 003°47'816.4
2017-May-23 01:00N 53°33' W 004°01'6416.9
2017-May-22 21:13N 53°24' W 005°47'419.8
2017-May-22 21:00N 53°23' W 005°54'816.9
2017-May-22 20:30N 53°21' W 006°08'3 6.3
2017-May-22 20:00N 53°21' W 006°13'0 0.0
2017-May-22 19:27N 53°21' W 006°13'0 0.0
2017-May-22 18:45N 53°21' W 006°13'0 0.0
2017-May-22 18:30N 53°21' W 006°13'0 0.0
2017-May-22 17:59N 53°21' W 006°13'0 0.0
2017-May-22 17:14N 53°21' W 006°13'0 0.0
2017-May-22 16:35N 53°21' W 006°13'0 0.0
2017-May-22 16:29N 53°21' W 006°13'0 0.0
2017-May-22 15:49N 53°21' W 006°13'0 0.0
2017-May-22 15:07N 53°21' W 006°13'0 0.0
2017-May-22 14:55N 53°21' W 006°13'0 0.0
2017-May-22 13:39N 53°21' W 006°13'0 0.0
2017-May-22 13:06N 53°21' W 006°13'0 0.0
2017-May-22 13:00N 53°21' W 006°13'0 0.0
2017-May-22 12:24N 53°21' W 006°13'0 0.0
2017-May-22 11:42N 53°21' W 006°13'0 0.0
2017-May-22 11:30N 53°21' W 006°13'0 0.0
2017-May-22 10:59N 53°21' W 006°13'0 0.0
2017-May-22 10:20N 53°21' W 006°13'0 0.0
2017-May-22 09:32N 53°21' W 006°13'0 0.0
2017-May-22 09:29N 53°21' W 006°13'0 0.0
2017-May-22 08:58N 53°21' W 006°13'0 0.0
2017-May-22 08:16N 53°21' W 006°13'0 0.0
2017-May-22 07:58N 53°21' W 006°13'0 0.0
2017-May-22 07:25N 53°21' W 006°13'0 0.0
2017-May-22 06:49N 53°21' W 006°13'0 0.0
2017-May-22 06:12N 53°21' W 006°13'0 0.0
2017-May-22 06:00N 53°21' W 006°13'0 0.0
2017-May-22 05:27N 53°21' W 006°13'0 0.0
2017-May-22 04:45N 53°21' W 006°13'0 0.0
2017-May-22 04:30N 53°21' W 006°13'1 1.8
2017-May-22 04:00N 53°21' W 006°12'714.2
2017-May-22 03:30N 53°22' W 005°60'816.7
2017-May-22 03:00N 53°25' W 005°47'7114.9
2017-May-21 22:13N 53°34' W 003°48'313.3
2017-May-21 22:00N 53°34' W 003°43'713.2
2017-May-21 21:30N 53°34' W 003°32'613.0
2017-May-21 21:00N 53°33' W 003°21'815.5
2017-May-21 20:30N 53°32' W 003°08'612.9
2017-May-21 20:00N 53°27' W 003°01'0 0.9
2017-May-21 19:29N 53°27' W 003°01'0 0.0
2017-May-21 18:59N 53°27' W 003°01'0 0.0
2017-May-21 18:26N 53°27' W 003°01'0 0.0
2017-May-21 17:55N 53°27' W 003°01'0 0.0
2017-May-21 17:28N 53°27' W 003°01'0 0.0
2017-May-21 16:55N 53°27' W 003°01'0 0.0
2017-May-21 16:28N 53°27' W 003°01'0 0.0
2017-May-21 16:01N 53°27' W 003°01'0 0.0
2017-May-21 15:30N 53°27' W 003°01'0 0.0
2017-May-21 15:00N 53°27' W 003°01'0 0.0
2017-May-21 14:30N 53°27' W 003°01'0 0.0
2017-May-21 13:26N 53°27' W 003°01'0 0.0
2017-May-21 12:59N 53°27' W 003°01'0 0.0
2017-May-21 12:29N 53°27' W 003°01'0 0.0
2017-May-21 11:58N 53°27' W 003°01'0 0.0
2017-May-21 11:28N 53°27' W 003°01'0 0.0
2017-May-21 10:55N 53°27' W 003°01'0 0.0
2017-May-21 10:30N 53°27' W 003°01'0 0.0
2017-May-21 10:00N 53°27' W 003°01'0 0.0
2017-May-21 09:30N 53°27' W 003°01'0 0.0
2017-May-21 09:00N 53°27' W 003°01'0 0.0
2017-May-21 08:30N 53°27' W 003°01'0 0.0
2017-May-21 07:50N 53°27' W 003°01'0 0.0
2017-May-21 07:23N 53°27' W 003°01'0 0.0
2017-May-21 06:53N 53°27' W 003°01'0 0.0
2017-May-21 06:29N 53°27' W 003°01'0 0.0
2017-May-21 05:58N 53°27' W 003°01'0 0.0
2017-May-21 05:28N 53°27' W 003°01'0 0.0
2017-May-21 04:58N 53°27' W 003°01'0 0.1
2017-May-21 04:30N 53°27' W 003°01'0 1.0
2017-May-21 04:00N 53°27' W 003°01'510.0
2017-May-21 03:30N 53°31' W 003°06'816.0
2017-May-21 03:00N 53°31' W 003°20'816.5
2017-May-21 02:30N 53°31' W 003°34'816.1
2017-May-21 02:00N 53°31' W 003°47'815.6
2017-May-21 01:30N 53°33' W 003°60'6316.0
2017-May-20 21:33N 53°24' W 005°45'117.3
2017-May-20 21:30N 53°24' W 005°46'816.9
2017-May-20 21:00N 53°21' W 005°60'713.8
2017-May-20 20:30N 53°21' W 006°11'1 1.9
2017-May-20 19:56N 53°21' W 006°13'0 0.0
2017-May-20 19:26N 53°21' W 006°13'0 0.0
2017-May-20 18:43N 53°21' W 006°13'0 0.0
2017-May-20 17:49N 53°21' W 006°13'0 0.0
2017-May-20 17:13N 53°21' W 006°13'0 0.0
2017-May-20 16:51N 53°21' W 006°13'0 0.0
2017-May-20 16:30N 53°21' W 006°13'2 4.5
2017-May-20 16:01N 53°21' W 006°09'714.5
2017-May-20 15:31N 53°22' W 005°58'816.2
2017-May-20 15:00N 53°25' W 005°44'6416.7
2017-May-20 11:09N 53°35' W 003°58'718.3
2017-May-20 10:47N 53°34' W 003°46'518.2
2017-May-20 10:30N 53°33' W 003°38'918.2
2017-May-20 10:00N 53°33' W 003°23'918.2
2017-May-20 09:30N 53°31' W 003°07'611.4
2017-May-20 09:00N 53°27' W 003°01'0 0.6
2017-May-20 08:30N 53°27' W 003°01'0 0.4
2017-May-20 07:58N 53°27' W 003°01'0 0.0
2017-May-20 07:30N 53°27' W 003°01'0 0.0
2017-May-20 07:00N 53°27' W 003°01'0 0.0
2017-May-20 06:30N 53°27' W 003°01'0 0.0
2017-May-20 06:00N 53°27' W 003°01'0 0.0
2017-May-20 05:30N 53°27' W 003°01'0 0.0
2017-May-20 05:00N 53°27' W 003°01'0 0.4
2017-May-20 04:30N 53°27' W 003°01'1 1.2
2017-May-20 04:00N 53°27' W 003°01'0 0.6
2017-May-20 03:30N 53°26' W 003°01'5 9.4
2017-May-20 03:00N 53°30' W 003°06'917.6
2017-May-20 02:30N 53°31' W 003°21'816.5
2017-May-20 02:00N 53°31' W 003°34'816.0
2017-May-20 01:30N 53°32' W 003°48'816.1
2017-May-20 01:00N 53°33' W 004°01'1016.2
2017-May-20 00:22N 53°35' W 004°18'5818.5
2017-May-19 21:12N 53°23' W 005°54'419.2
2017-May-19 21:00N 53°21' W 006°00'713.4
2017-May-19 20:30N 53°21' W 006°11'1 1.6
2017-May-19 19:44N 53°21' W 006°13'0 0.0
2017-May-19 18:16N 53°21' W 006°13'0 0.0
2017-May-19 17:34N 53°21' W 006°13'0 0.0
2017-May-19 17:28N 53°21' W 006°13'0 0.0
2017-May-19 17:00N 53°21' W 006°13'0 0.0
2017-May-19 16:29N 53°21' W 006°13'2 3.7
2017-May-19 16:00N 53°21' W 006°10'815.1
2017-May-19 15:30N 53°22' W 005°58'816.3
2017-May-19 15:00N 53°25' W 005°45'2816.4
2017-May-19 13:19N 53°33' W 005°00'1816.4
2017-May-19 12:13N 53°37' W 004°30'716.7
2017-May-19 11:49N 53°36' W 004°19'517.2
2017-May-19 11:30N 53°35' W 004°10'1617.6
2017-May-19 10:34N 53°34' W 003°43'217.7
2017-May-19 10:27N 53°33' W 003°39'817.6
2017-May-19 10:00N 53°33' W 003°26'917.4
2017-May-19 09:30N 53°32' W 003°12'815.7
2017-May-19 09:00N 53°27' W 003°01'0 0.3
2017-May-19 08:30N 53°27' W 003°01'0 0.8
2017-May-19 07:56N 53°27' W 003°01'0 0.0
2017-May-19 07:26N 53°27' W 003°01'0 0.0
2017-May-19 06:52N 53°27' W 003°01'0 0.0
2017-May-19 06:28N 53°27' W 003°01'0 0.0
2017-May-19 05:58N 53°27' W 003°01'0 0.0
2017-May-19 05:25N 53°27' W 003°01'0 0.0
2017-May-19 04:55N 53°27' W 003°01'0 0.0
2017-May-19 04:30N 53°27' W 003°01'0 0.2
2017-May-19 04:00N 53°27' W 003°01'1 1.1
2017-May-19 03:30N 53°27' W 003°01'713.0
2017-May-19 03:00N 53°32' W 003°08'917.3
2017-May-19 02:30N 53°32' W 003°23'917.6
2017-May-19 02:00N 53°31' W 003°38'816.5
2017-May-19 01:30N 53°33' W 003°52'7416.6
2017-May-18 21:04N 53°22' W 005°54'117.0
2017-May-18 21:00N 53°22' W 005°56'815.5
2017-May-18 20:30N 53°21' W 006°08'3 2.5
2017-May-18 19:22N 53°21' W 006°13'0 0.0
2017-May-18 18:28N 53°21' W 006°13'0 0.0
2017-May-18 17:57N 53°21' W 006°13'0 0.0
2017-May-18 17:15N 53°21' W 006°13'0 0.0
2017-May-18 16:43N 53°21' W 006°13'0 0.4
2017-May-18 16:30N 53°21' W 006°13'611.1
2017-May-18 16:00N 53°20' W 006°04'917.2
2017-May-18 15:31N 53°24' W 005°50'7516.0
2017-May-18 10:49N 53°34' W 003°46'617.2
2017-May-18 10:30N 53°33' W 003°37'917.3
2017-May-18 10:00N 53°32' W 003°22'816.9
2017-May-18 09:30N 53°32' W 003°08'612.5
2017-May-18 09:00N 53°27' W 003°01'0 0.0
2017-May-18 08:30N 53°27' W 003°01'0 0.8
2017-May-18 07:55N 53°27' W 003°01'0 0.0
2017-May-18 07:28N 53°27' W 003°01'0 0.0
2017-May-18 07:00N 53°27' W 003°01'0 0.0
2017-May-18 06:30N 53°27' W 003°01'0 0.0
2017-May-18 06:00N 53°27' W 003°01'0 0.0
2017-May-18 05:30N 53°27' W 003°01'0 0.0
2017-May-18 04:57N 53°27' W 003°01'0 0.0
2017-May-18 04:26N 53°27' W 003°01'0 0.1
2017-May-18 03:59N 53°27' W 003°01'0 1.0
2017-May-18 03:30N 53°27' W 003°01'611.4
2017-May-18 03:00N 53°31' W 003°07'919.1
2017-May-18 02:30N 53°31' W 003°23'918.1
2017-May-18 02:00N 53°31' W 003°38'918.0
2017-May-18 01:30N 53°33' W 003°54'917.6
2017-May-18 01:00N 53°35' W 004°08'6217.3
2017-May-17 21:25N 53°23' W 005°50'717.3
2017-May-17 21:00N 53°21' W 006°01'713.4
2017-May-17 20:30N 53°21' W 006°12'1 0.9
2017-May-17 19:58N 53°21' W 006°13'0 0.0
2017-May-17 19:28N 53°21' W 006°13'0 0.0
2017-May-17 18:46N 53°21' W 006°13'0 0.0
2017-May-17 18:00N 53°21' W 006°13'0 0.0
2017-May-17 17:18N 53°21' W 006°13'0 0.0
2017-May-17 16:42N 53°21' W 006°13'0 0.0
2017-May-17 16:30N 53°21' W 006°13'2 4.4
2017-May-17 16:01N 53°21' W 006°10'714.0
2017-May-17 15:30N 53°22' W 005°58'714.9
2017-May-17 15:00N 53°25' W 005°46'815.1
2017-May-17 14:30N 53°27' W 005°34'6516.7
2017-May-17 10:37N 53°34' W 003°46'219.0
2017-May-17 10:30N 53°34' W 003°42'919.0
2017-May-17 10:00N 53°33' W 003°26'917.8
2017-May-17 09:30N 53°32' W 003°11'815.1
2017-May-17 09:00N 53°27' W 003°01'0 0.4
2017-May-17 08:30N 53°27' W 003°01'0 0.9
2017-May-17 08:00N 53°27' W 003°01'0 0.0
2017-May-17 07:25N 53°27' W 003°01'0 0.0
2017-May-17 06:55N 53°27' W 003°01'0 0.0
2017-May-17 06:27N 53°27' W 003°01'0 0.0
2017-May-17 05:54N 53°27' W 003°01'0 0.0
2017-May-17 05:30N 53°27' W 003°01'0 0.0
2017-May-17 04:57N 53°27' W 003°01'0 0.0
2017-May-17 04:29N 53°27' W 003°01'0 0.5
2017-May-17 04:00N 53°27' W 003°01'0 0.7
2017-May-17 03:30N 53°27' W 003°01'713.8
2017-May-17 03:00N 53°32' W 003°09'816.9
2017-May-17 02:30N 53°31' W 003°24'917.4
2017-May-17 02:00N 53°31' W 003°38'816.6
2017-May-17 01:30N 53°32' W 003°52'816.6
2017-May-17 01:00N 53°33' W 004°06'816.3
2017-May-17 00:30N 53°35' W 004°20'5516.7
2017-May-16 21:13N 53°23' W 005°50'417.0
2017-May-16 20:59N 53°22' W 005°56'815.7
2017-May-16 20:31N 53°21' W 006°08'3 5.5
2017-May-16 19:59N 53°21' W 006°13'0 0.0
2017-May-16 19:13N 53°21' W 006°13'0 0.0
2017-May-16 18:55N 53°21' W 006°13'0 0.0
2017-May-16 18:25N 53°21' W 006°13'0 0.0
2017-May-16 17:55N 53°21' W 006°13'0 0.0
2017-May-16 17:12N 53°21' W 006°13'0 0.0
2017-May-16 16:33N 53°21' W 006°13'0 0.0
2017-May-16 16:30N 53°21' W 006°13'1 1.8
2017-May-16 16:00N 53°21' W 006°12'815.7
2017-May-16 15:30N 53°22' W 005°59'1019.4
2017-May-16 15:00N 53°25' W 005°43'7317.6
2017-May-16 10:50N 53°34' W 003°41'618.5
2017-May-16 10:30N 53°33' W 003°31'918.4
2017-May-16 10:00N 53°31' W 003°15'713.9
2017-May-16 09:30N 53°29' W 003°05'3 5.5
2017-May-16 09:00N 53°27' W 003°01'0 0.9
2017-May-16 08:30N 53°27' W 003°01'0 0.0
2017-May-16 07:59N 53°27' W 003°01'0 0.0
2017-May-16 07:28N 53°27' W 003°01'0 0.0
2017-May-16 06:58N 53°27' W 003°01'0 0.0
2017-May-16 06:28N 53°27' W 003°01'0 0.0
2017-May-16 05:58N 53°27' W 003°01'0 0.0
2017-May-16 05:27N 53°27' W 003°01'0 0.0
2017-May-16 04:57N 53°27' W 003°01'0 0.0
2017-May-16 04:27N 53°27' W 003°01'0 0.2
2017-May-16 04:00N 53°27' W 003°01'0 1.0
2017-May-16 03:30N 53°27' W 003°01'5 9.9
2017-May-16 03:00N 53°31' W 003°07'816.5
2017-May-16 02:30N 53°31' W 003°21'816.4
2017-May-16 02:00N 53°31' W 003°34'816.3
2017-May-16 01:30N 53°32' W 003°48'  

Dump ship's entire track history